Edmonds, Washington
Current Conditions -  °F | °C
As of 9:53 PM on Thursday 30 Oct 2014 (Local Time) from KPAE Reporting Station
Light Rain Light Rain  
Wind Chill: 13°   Ceiling: 3600
Heat Index: 13°   Visibility: 10mi
Dew Point: 12°   Wind: 10mph
Humidity: 90%   Direction: 160°SSE
Pressure: 29.77"   Gusts: NA
Location:  47.81°N, 122.37°W
Report Text: KPAE 310453Z AUTO 16009KT 10SM -RA SCT006 BKN036 OVC075 13/12 A2977 RMK AO2 SLP080 P0002 T01330117
Loading
Personal Weather Stations






























Interactive Weather Map
Tropical Storm Tracking
New forecast layout! Learn more

10-Day Weather Forecast

Advertisements
Track Severe Weather on mobile